sensor_id;sensor_type;location;lat;lon;timestamp;temperature;humidity
7331;DHT22;3706;49.198;7.064;2022-12-18T00:00:48;-8.40;99.90
7331;DHT22;3706;49.198;7.064;2022-12-18T00:03:15;-8.50;99.90
7331;DHT22;3706;49.198;7.064;2022-12-18T00:05:48;-8.50;99.90
7331;DHT22;3706;49.198;7.064;2022-12-18T00:08:15;-8.60;99.90
7331;DHT22;3706;49.198;7.064;2022-12-18T00:10:43;-8.40;99.90
7331;DHT22;3706;49.198;7.064;2022-12-18T00:13:11;-8.30;99.90
7331;DHT22;3706;49.198;7.064;2022-12-18T00:15:39;-8.20;99.90
7331;DHT22;3706;49.198;7.064;2022-12-18T00:18:06;-8.10;99.90
7331;DHT22;3706;49.198;7.064;2022-12-18T00:20:36;-8.10;99.90
7331;DHT22;3706;49.198;7.064;2022-12-18T00:23:03;-8.10;99.90
7331;DHT22;3706;49.198;7.064;2022-12-18T00:25:31;-8.00;99.90
7331;DHT22;3706;49.198;7.064;2022-12-18T00:27:58;-8.00;99.90
7331;DHT22;3706;49.198;7.064;2022-12-18T00:30:25;-7.90;99.90
7331;DHT22;3706;49.198;7.064;2022-12-18T00:32:54;-8.00;99.90
7331;DHT22;3706;49.198;7.064;2022-12-18T00:35:21;-8.10;99.90
7331;DHT22;3706;49.198;7.064;2022-12-18T00:37:48;-8.10;99.90
7331;DHT22;3706;49.198;7.064;2022-12-18T00:40:15;-8.10;99.90
7331;DHT22;3706;49.198;7.064;2022-12-18T00:42:42;-8.20;99.90
7331;DHT22;3706;49.198;7.064;2022-12-18T00:45:23;-8.30;99.90
7331;DHT22;3706;49.198;7.064;2022-12-18T00:47:50;-8.30;99.90
7331;DHT22;3706;49.198;7.064;2022-12-18T00:50:19;-8.50;99.90
7331;DHT22;3706;49.198;7.064;2022-12-18T00:52:46;-8.50;99.90
7331;DHT22;3706;49.198;7.064;2022-12-18T00:55:13;-8.50;99.90
7331;DHT22;3706;49.198;7.064;2022-12-18T00:57:40;-8.50;99.90
7331;DHT22;3706;49.198;7.064;2022-12-18T01:00:10;-8.50;99.90
7331;DHT22;3706;49.198;7.064;2022-12-18T01:02:39;-8.50;99.90
7331;DHT22;3706;49.198;7.064;2022-12-18T01:05:07;-8.40;99.90
7331;DHT22;3706;49.198;7.064;2022-12-18T01:07:35;-8.40;99.90
7331;DHT22;3706;49.198;7.064;2022-12-18T01:10:04;-8.40;99.90
7331;DHT22;3706;49.198;7.064;2022-12-18T01:12:31;-8.40;99.90
7331;DHT22;3706;49.198;7.064;2022-12-18T01:14:58;-8.40;99.90
7331;DHT22;3706;49.198;7.064;2022-12-18T01:17:25;-8.40;99.90
7331;DHT22;3706;49.198;7.064;2022-12-18T01:19:52;-8.40;99.90
7331;DHT22;3706;49.198;7.064;2022-12-18T01:22:19;-8.30;99.90
7331;DHT22;3706;49.198;7.064;2022-12-18T01:24:47;-8.20;99.90
7331;DHT22;3706;49.198;7.064;2022-12-18T01:27:14;-8.00;99.90
7331;DHT22;3706;49.198;7.064;2022-12-18T01:29:41;-7.90;99.90
7331;DHT22;3706;49.198;7.064;2022-12-18T01:32:08;-8.00;99.90
7331;DHT22;3706;49.198;7.064;2022-12-18T01:34:35;-7.90;99.90
7331;DHT22;3706;49.198;7.064;2022-12-18T01:37:02;-7.90;99.90
7331;DHT22;3706;49.198;7.064;2022-12-18T01:39:29;-7.90;99.90
7331;DHT22;3706;49.198;7.064;2022-12-18T01:41:58;-7.90;99.90
7331;DHT22;3706;49.198;7.064;2022-12-18T01:45:03;-7.90;99.90
7331;DHT22;3706;49.198;7.064;2022-12-18T01:47:39;-7.90;99.90
7331;DHT22;3706;49.198;7.064;2022-12-18T01:50:11;-7.90;99.90
7331;DHT22;3706;49.198;7.064;2022-12-18T01:52:41;-7.80;99.90
7331;DHT22;3706;49.198;7.064;2022-12-18T01:55:10;-7.80;99.90
7331;DHT22;3706;49.198;7.064;2022-12-18T01:57:39;-7.90;99.90
7331;DHT22;3706;49.198;7.064;2022-12-18T02:00:09;-7.90;99.90
7331;DHT22;3706;49.198;7.064;2022-12-18T02:02:36;-8.00;99.90
7331;DHT22;3706;49.198;7.064;2022-12-18T02:05:05;-8.00;99.90
7331;DHT22;3706;49.198;7.064;2022-12-18T02:07:40;-8.10;99.90
7331;DHT22;3706;49.198;7.064;2022-12-18T02:10:15;-8.20;99.90
7331;DHT22;3706;49.198;7.064;2022-12-18T02:12:49;-8.30;99.90
7331;DHT22;3706;49.198;7.064;2022-12-18T02:15:26;-8.30;99.90
7331;DHT22;3706;49.198;7.064;2022-12-18T02:17:57;-8.30;99.90
7331;DHT22;3706;49.198;7.064;2022-12-18T02:20:30;-8.40;99.90
7331;DHT22;3706;49.198;7.064;2022-12-18T02:23:06;-8.50;99.90
7331;DHT22;3706;49.198;7.064;2022-12-18T02:26:08;-8.50;99.90
7331;DHT22;3706;49.198;7.064;2022-12-18T02:28:42;-8.60;99.90
7331;DHT22;3706;49.198;7.064;2022-12-18T02:31:11;-8.70;99.90
7331;DHT22;3706;49.198;7.064;2022-12-18T02:33:41;-8.80;99.90
7331;DHT22;3706;49.198;7.064;2022-12-18T02:36:11;-8.80;99.90
7331;DHT22;3706;49.198;7.064;2022-12-18T02:38:41;-8.80;99.90
7331;DHT22;3706;49.198;7.064;2022-12-18T02:41:10;-8.70;99.90
7331;DHT22;3706;49.198;7.064;2022-12-18T02:43:37;-8.70;99.90
7331;DHT22;3706;49.198;7.064;2022-12-18T02:46:24;-8.80;99.90
7331;DHT22;3706;49.198;7.064;2022-12-18T02:48:53;-8.80;99.90
7331;DHT22;3706;49.198;7.064;2022-12-18T02:51:26;-8.80;99.90
7331;DHT22;3706;49.198;7.064;2022-12-18T02:54:00;-8.90;99.90
7331;DHT22;3706;49.198;7.064;2022-12-18T02:56:38;-9.00;99.90
7331;DHT22;3706;49.198;7.064;2022-12-18T02:59:09;-9.00;99.90
7331;DHT22;3706;49.198;7.064;2022-12-18T03:01:46;-9.00;99.90
7331;DHT22;3706;49.198;7.064;2022-12-18T03:04:20;-9.00;99.90
7331;DHT22;3706;49.198;7.064;2022-12-18T03:06:54;-9.10;99.90
7331;DHT22;3706;49.198;7.064;2022-12-18T03:09:26;-9.00;99.90
7331;DHT22;3706;49.198;7.064;2022-12-18T03:12:02;-9.00;99.90
7331;DHT22;3706;49.198;7.064;2022-12-18T03:14:50;-9.00;99.90
7331;DHT22;3706;49.198;7.064;2022-12-18T03:17:19;-9.00;99.90
7331;DHT22;3706;49.198;7.064;2022-12-18T03:19:49;-9.10;99.90
7331;DHT22;3706;49.198;7.064;2022-12-18T03:22:17;-9.20;99.90
7331;DHT22;3706;49.198;7.064;2022-12-18T03:24:46;-9.20;99.90
7331;DHT22;3706;49.198;7.064;2022-12-18T03:27:18;-9.20;99.90
7331;DHT22;3706;49.198;7.064;2022-12-18T03:29:48;-9.20;99.90
7331;DHT22;3706;49.198;7.064;2022-12-18T03:32:26;-9.20;99.90
7331;DHT22;3706;49.198;7.064;2022-12-18T03:34:58;-9.30;99.90
7331;DHT22;3706;49.198;7.064;2022-12-18T03:37:27;-9.40;99.90
7331;DHT22;3706;49.198;7.064;2022-12-18T03:39:57;-9.40;99.90
7331;DHT22;3706;49.198;7.064;2022-12-18T03:42:28;-9.30;99.90
7331;DHT22;3706;49.198;7.064;2022-12-18T03:45:02;-9.30;99.90
7331;DHT22;3706;49.198;7.064;2022-12-18T03:47:38;-9.30;99.90
7331;DHT22;3706;49.198;7.064;2022-12-18T03:50:11;-9.30;99.90
7331;DHT22;3706;49.198;7.064;2022-12-18T03:52:42;-9.30;99.90
7331;DHT22;3706;49.198;7.064;2022-12-18T03:55:12;-9.30;99.90
7331;DHT22;3706;49.198;7.064;2022-12-18T03:57:41;-9.30;99.90
7331;DHT22;3706;49.198;7.064;2022-12-18T04:00:11;-9.40;99.90
7331;DHT22;3706;49.198;7.064;2022-12-18T04:02:44;-9.40;99.90
7331;DHT22;3706;49.198;7.064;2022-12-18T04:05:13;-9.40;99.90
7331;DHT22;3706;49.198;7.064;2022-12-18T04:07:41;-9.40;99.90
7331;DHT22;3706;49.198;7.064;2022-12-18T04:10:09;-9.40;99.90
7331;DHT22;3706;49.198;7.064;2022-12-18T04:12:41;-9.50;99.90
7331;DHT22;3706;49.198;7.064;2022-12-18T04:15:09;-9.50;99.90
7331;DHT22;3706;49.198;7.064;2022-12-18T04:17:37;-9.60;99.90
7331;DHT22;3706;49.198;7.064;2022-12-18T04:20:05;-9.60;99.90
7331;DHT22;3706;49.198;7.064;2022-12-18T04:22:32;-9.60;99.90
7331;DHT22;3706;49.198;7.064;2022-12-18T04:24:59;-9.60;99.90
7331;DHT22;3706;49.198;7.064;2022-12-18T04:27:26;-9.70;99.90
7331;DHT22;3706;49.198;7.064;2022-12-18T04:29:54;-9.70;99.90
7331;DHT22;3706;49.198;7.064;2022-12-18T04:32:21;-9.70;99.90
7331;DHT22;3706;49.198;7.064;2022-12-18T04:34:47;-9.60;99.90
7331;DHT22;3706;49.198;7.064;2022-12-18T04:37:14;-9.60;99.90
7331;DHT22;3706;49.198;7.064;2022-12-18T04:39:41;-9.60;99.90
7331;DHT22;3706;49.198;7.064;2022-12-18T04:42:08;-9.60;99.90
7331;DHT22;3706;49.198;7.064;2022-12-18T04:44:36;-9.60;99.90
7331;DHT22;3706;49.198;7.064;2022-12-18T04:47:04;-9.60;99.90
7331;DHT22;3706;49.198;7.064;2022-12-18T04:49:31;-9.70;99.90
7331;DHT22;3706;49.198;7.064;2022-12-18T04:51:58;-9.70;99.90
7331;DHT22;3706;49.198;7.064;2022-12-18T04:54:25;-9.80;99.90
7331;DHT22;3706;49.198;7.064;2022-12-18T04:56:52;-9.90;99.90
7331;DHT22;3706;49.198;7.064;2022-12-18T04:59:19;-9.90;99.90
7331;DHT22;3706;49.198;7.064;2022-12-18T05:01:45;-9.90;99.90
7331;DHT22;3706;49.198;7.064;2022-12-18T05:04:14;-10.10;99.90
7331;DHT22;3706;49.198;7.064;2022-12-18T05:06:41;-10.00;99.90
7331;DHT22;3706;49.198;7.064;2022-12-18T05:09:07;-10.10;99.90
7331;DHT22;3706;49.198;7.064;2022-12-18T05:11:36;-10.10;99.90
7331;DHT22;3706;49.198;7.064;2022-12-18T05:14:03;-10.10;99.90
7331;DHT22;3706;49.198;7.064;2022-12-18T05:16:29;-10.00;99.90
7331;DHT22;3706;49.198;7.064;2022-12-18T05:18:57;-10.00;99.90
7331;DHT22;3706;49.198;7.064;2022-12-18T05:21:25;-10.00;99.90
7331;DHT22;3706;49.198;7.064;2022-12-18T05:23:52;-9.90;99.90
7331;DHT22;3706;49.198;7.064;2022-12-18T05:26:19;-9.80;99.90
7331;DHT22;3706;49.198;7.064;2022-12-18T05:28:46;-9.60;99.90
7331;DHT22;3706;49.198;7.064;2022-12-18T05:31:13;-9.70;99.90
7331;DHT22;3706;49.198;7.064;2022-12-18T05:33:40;-9.80;99.90
7331;DHT22;3706;49.198;7.064;2022-12-18T05:36:08;-9.90;99.90
7331;DHT22;3706;49.198;7.064;2022-12-18T05:38:38;-10.00;99.90
7331;DHT22;3706;49.198;7.064;2022-12-18T05:41:05;-10.10;99.90
7331;DHT22;3706;49.198;7.064;2022-12-18T05:43:34;-10.20;99.90
7331;DHT22;3706;49.198;7.064;2022-12-18T05:46:04;-10.20;99.90
7331;DHT22;3706;49.198;7.064;2022-12-18T05:48:31;-10.20;99.90
7331;DHT22;3706;49.198;7.064;2022-12-18T05:51:04;-10.20;99.90
7331;DHT22;3706;49.198;7.064;2022-12-18T05:53:31;-10.20;99.90
7331;DHT22;3706;49.198;7.064;2022-12-18T05:56:01;-10.20;99.90
7331;DHT22;3706;49.198;7.064;2022-12-18T05:58:28;-10.20;99.90
7331;DHT22;3706;49.198;7.064;2022-12-18T06:00:56;-10.30;99.90
7331;DHT22;3706;49.198;7.064;2022-12-18T06:03:23;-10.40;99.90
7331;DHT22;3706;49.198;7.064;2022-12-18T06:05:50;-10.40;99.90
7331;DHT22;3706;49.198;7.064;2022-12-18T06:08:17;-10.40;99.90
7331;DHT22;3706;49.198;7.064;2022-12-18T06:10:50;-10.40;99.90
7331;DHT22;3706;49.198;7.064;2022-12-18T06:13:19;-10.40;99.90
7331;DHT22;3706;49.198;7.064;2022-12-18T06:15:46;-10.40;99.90
7331;DHT22;3706;49.198;7.064;2022-12-18T06:18:14;-10.40;99.90
7331;DHT22;3706;49.198;7.064;2022-12-18T06:20:40;-10.40;99.90
7331;DHT22;3706;49.198;7.064;2022-12-18T06:23:07;-10.40;99.90
7331;DHT22;3706;49.198;7.064;2022-12-18T06:25:37;-10.40;99.90
7331;DHT22;3706;49.198;7.064;2022-12-18T06:28:04;-10.40;99.90
7331;DHT22;3706;49.198;7.064;2022-12-18T06:30:33;-10.50;99.90
7331;DHT22;3706;49.198;7.064;2022-12-18T06:33:01;-10.50;99.90
7331;DHT22;3706;49.198;7.064;2022-12-18T06:35:28;-10.60;99.90
7331;DHT22;3706;49.198;7.064;2022-12-18T06:37:55;-10.60;99.90
7331;DHT22;3706;49.198;7.064;2022-12-18T06:40:22;-10.60;99.90
7331;DHT22;3706;49.198;7.064;2022-12-18T06:42:49;-10.60;99.90
7331;DHT22;3706;49.198;7.064;2022-12-18T06:45:16;-10.40;99.90
7331;DHT22;3706;49.198;7.064;2022-12-18T06:47:44;-10.20;99.90
7331;DHT22;3706;49.198;7.064;2022-12-18T06:50:12;-10.10;99.90
7331;DHT22;3706;49.198;7.064;2022-12-18T06:52:39;-10.10;99.90
7331;DHT22;3706;49.198;7.064;2022-12-18T06:55:08;-10.20;99.90
7331;DHT22;3706;49.198;7.064;2022-12-18T06:57:35;-10.20;99.90
7331;DHT22;3706;49.198;7.064;2022-12-18T07:00:03;-10.40;99.90
7331;DHT22;3706;49.198;7.064;2022-12-18T07:02:31;-10.50;99.90
7331;DHT22;3706;49.198;7.064;2022-12-18T07:04:59;-10.60;99.90
7331;DHT22;3706;49.198;7.064;2022-12-18T07:07:26;-10.60;99.90
7331;DHT22;3706;49.198;7.064;2022-12-18T07:09:53;-10.70;99.90
7331;DHT22;3706;49.198;7.064;2022-12-18T07:12:20;-10.70;99.90
7331;DHT22;3706;49.198;7.064;2022-12-18T07:14:47;-10.70;99.90
7331;DHT22;3706;49.198;7.064;2022-12-18T07:17:14;-10.70;99.90
7331;DHT22;3706;49.198;7.064;2022-12-18T07:19:41;-10.70;99.90
7331;DHT22;3706;49.198;7.064;2022-12-18T07:22:09;-10.80;99.90
7331;DHT22;3706;49.198;7.064;2022-12-18T07:24:36;-10.70;99.90
7331;DHT22;3706;49.198;7.064;2022-12-18T07:27:03;-10.50;99.90
7331;DHT22;3706;49.198;7.064;2022-12-18T07:29:30;-10.50;99.90
7331;DHT22;3706;49.198;7.064;2022-12-18T07:31:57;-10.50;99.90
7331;DHT22;3706;49.198;7.064;2022-12-18T07:34:24;-10.20;99.90
7331;DHT22;3706;49.198;7.064;2022-12-18T07:36:51;-10.10;99.90
7331;DHT22;3706;49.198;7.064;2022-12-18T07:39:19;-9.90;99.90
7331;DHT22;3706;49.198;7.064;2022-12-18T07:41:46;-9.80;99.90
7331;DHT22;3706;49.198;7.064;2022-12-18T07:44:33;-9.80;99.90
7331;DHT22;3706;49.198;7.064;2022-12-18T07:47:00;-9.70;99.90
7331;DHT22;3706;49.198;7.064;2022-12-18T07:49:27;-9.60;99.90
7331;DHT22;3706;49.198;7.064;2022-12-18T07:51:55;-9.60;99.90
7331;DHT22;3706;49.198;7.064;2022-12-18T07:54:24;-9.50;99.90
7331;DHT22;3706;49.198;7.064;2022-12-18T07:56:51;-9.40;99.90
7331;DHT22;3706;49.198;7.064;2022-12-18T07:59:18;-9.40;99.90
7331;DHT22;3706;49.198;7.064;2022-12-18T08:01:45;-9.40;99.90
7331;DHT22;3706;49.198;7.064;2022-12-18T08:04:12;-9.40;99.90
7331;DHT22;3706;49.198;7.064;2022-12-18T08:06:39;-9.40;99.90
7331;DHT22;3706;49.198;7.064;2022-12-18T08:09:05;-9.30;99.90
7331;DHT22;3706;49.198;7.064;2022-12-18T08:11:35;-9.30;99.90
7331;DHT22;3706;49.198;7.064;2022-12-18T08:14:02;-9.30;99.90
7331;DHT22;3706;49.198;7.064;2022-12-18T08:16:29;-9.30;99.90
7331;DHT22;3706;49.198;7.064;2022-12-18T08:18:56;-9.10;99.90
7331;DHT22;3706;49.198;7.064;2022-12-18T08:21:25;-8.70;99.90
7331;DHT22;3706;49.198;7.064;2022-12-18T08:23:53;-8.40;99.90
7331;DHT22;3706;49.198;7.064;2022-12-18T08:26:21;-8.00;99.90
7331;DHT22;3706;49.198;7.064;2022-12-18T08:28:50;-7.60;99.90
7331;DHT22;3706;49.198;7.064;2022-12-18T08:31:17;-7.40;99.90
7331;DHT22;3706;49.198;7.064;2022-12-18T08:33:44;-7.40;99.90
7331;DHT22;3706;49.198;7.064;2022-12-18T08:36:11;-7.40;99.90
7331;DHT22;3706;49.198;7.064;2022-12-18T08:38:38;-7.30;99.90
7331;DHT22;3706;49.198;7.064;2022-12-18T08:41:07;-7.20;99.90
7331;DHT22;3706;49.198;7.064;2022-12-18T08:43:35;-7.00;99.90
7331;DHT22;3706;49.198;7.064;2022-12-18T08:46:23;-6.90;99.90
7331;DHT22;3706;49.198;7.064;2022-12-18T08:48:51;-6.80;99.90
7331;DHT22;3706;49.198;7.064;2022-12-18T08:51:19;-6.80;99.90
7331;DHT22;3706;49.198;7.064;2022-12-18T08:53:46;-6.80;99.90
7331;DHT22;3706;49.198;7.064;2022-12-18T08:56:14;-6.80;99.90
7331;DHT22;3706;49.198;7.064;2022-12-18T08:58:42;-6.80;99.90
7331;DHT22;3706;49.198;7.064;2022-12-18T09:01:10;-6.70;99.90
7331;DHT22;3706;49.198;7.064;2022-12-18T09:03:39;-6.70;99.90
7331;DHT22;3706;49.198;7.064;2022-12-18T09:06:07;-6.60;99.90
7331;DHT22;3706;49.198;7.064;2022-12-18T09:08:34;-6.50;99.90
7331;DHT22;3706;49.198;7.064;2022-12-18T09:11:02;-6.40;99.90
7331;DHT22;3706;49.198;7.064;2022-12-18T09:13:29;-6.30;99.90
7331;DHT22;3706;49.198;7.064;2022-12-18T09:15:56;-6.30;99.90
7331;DHT22;3706;49.198;7.064;2022-12-18T09:18:25;-6.30;99.90
7331;DHT22;3706;49.198;7.064;2022-12-18T09:20:53;-6.30;99.90
7331;DHT22;3706;49.198;7.064;2022-12-18T09:23:20;-6.30;99.90
7331;DHT22;3706;49.198;7.064;2022-12-18T09:25:47;-6.20;99.90
7331;DHT22;3706;49.198;7.064;2022-12-18T09:28:18;-6.10;99.90
7331;DHT22;3706;49.198;7.064;2022-12-18T09:30:46;-6.10;99.90
7331;DHT22;3706;49.198;7.064;2022-12-18T09:33:14;-6.00;99.90
7331;DHT22;3706;49.198;7.064;2022-12-18T09:35:42;-5.90;99.90
7331;DHT22;3706;49.198;7.064;2022-12-18T09:38:12;-5.80;99.90
7331;DHT22;3706;49.198;7.064;2022-12-18T09:40:43;-5.80;99.90
7331;DHT22;3706;49.198;7.064;2022-12-18T09:43:17;-5.70;99.90
7331;DHT22;3706;49.198;7.064;2022-12-18T09:45:49;-5.60;99.90
7331;DHT22;3706;49.198;7.064;2022-12-18T09:48:20;-5.60;99.90
7331;DHT22;3706;49.198;7.064;2022-12-18T09:50:51;-5.60;99.90
7331;DHT22;3706;49.198;7.064;2022-12-18T09:53:24;-5.60;99.90
7331;DHT22;3706;49.198;7.064;2022-12-18T09:55:52;-5.60;99.90
7331;DHT22;3706;49.198;7.064;2022-12-18T09:58:26;-5.60;99.90
7331;DHT22;3706;49.198;7.064;2022-12-18T10:00:55;-5.60;99.90
7331;DHT22;3706;49.198;7.064;2022-12-18T10:03:22;-5.50;99.90
7331;DHT22;3706;49.198;7.064;2022-12-18T10:05:56;-5.50;99.90
7331;DHT22;3706;49.198;7.064;2022-12-18T10:08:35;-5.40;99.90
7331;DHT22;3706;49.198;7.064;2022-12-18T10:11:23;-5.40;99.90
7331;DHT22;3706;49.198;7.064;2022-12-18T10:13:58;-5.30;99.90
7331;DHT22;3706;49.198;7.064;2022-12-18T10:16:33;-5.10;99.90
7331;DHT22;3706;49.198;7.064;2022-12-18T10:19:20;-4.90;99.90
7331;DHT22;3706;49.198;7.064;2022-12-18T10:21:53;-4.70;99.90
7331;DHT22;3706;49.198;7.064;2022-12-18T10:24:28;-4.50;99.90
7331;DHT22;3706;49.198;7.064;2022-12-18T10:27:04;-4.60;99.90
7331;DHT22;3706;49.198;7.064;2022-12-18T10:29:35;-4.70;99.90
7331;DHT22;3706;49.198;7.064;2022-12-18T10:32:02;-4.70;99.90
7331;DHT22;3706;49.198;7.064;2022-12-18T10:34:31;-4.80;99.90
7331;DHT22;3706;49.198;7.064;2022-12-18T10:37:00;-4.80;99.90
7331;DHT22;3706;49.198;7.064;2022-12-18T10:39:28;-4.70;99.90
7331;DHT22;3706;49.198;7.064;2022-12-18T10:42:10;-4.70;99.90
7331;DHT22;3706;49.198;7.064;2022-12-18T10:44:38;-4.70;99.90
7331;DHT22;3706;49.198;7.064;2022-12-18T10:47:11;-4.70;99.90
7331;DHT22;3706;49.198;7.064;2022-12-18T10:49:46;-4.60;99.90
7331;DHT22;3706;49.198;7.064;2022-12-18T10:52:16;-4.30;99.90
7331;DHT22;3706;49.198;7.064;2022-12-18T10:54:49;-4.30;99.90
7331;DHT22;3706;49.198;7.064;2022-12-18T10:57:29;-4.20;99.90
7331;DHT22;3706;49.198;7.064;2022-12-18T10:59:58;-4.10;99.90
7331;DHT22;3706;49.198;7.064;2022-12-18T11:02:29;-4.20;99.90
7331;DHT22;3706;49.198;7.064;2022-12-18T11:05:00;-4.10;99.90
7331;DHT22;3706;49.198;7.064;2022-12-18T11:07:47;-4.10;99.90
7331;DHT22;3706;49.198;7.064;2022-12-18T11:10:18;-4.00;99.90
7331;DHT22;3706;49.198;7.064;2022-12-18T11:12:46;-3.90;99.90
7331;DHT22;3706;49.198;7.064;2022-12-18T11:15:16;-3.90;99.90
7331;DHT22;3706;49.198;7.064;2022-12-18T11:17:47;-3.90;99.90
7331;DHT22;3706;49.198;7.064;2022-12-18T11:20:23;-4.00;99.90
7331;DHT22;3706;49.198;7.064;2022-12-18T11:22:56;-4.00;99.90
7331;DHT22;3706;49.198;7.064;2022-12-18T11:25:24;-3.90;99.90
7331;DHT22;3706;49.198;7.064;2022-12-18T11:27:57;-3.80;99.90
7331;DHT22;3706;49.198;7.064;2022-12-18T11:30:26;-3.80;99.90
7331;DHT22;3706;49.198;7.064;2022-12-18T11:32:56;-3.70;99.90
7331;DHT22;3706;49.198;7.064;2022-12-18T11:35:38;-3.70;99.90
7331;DHT22;3706;49.198;7.064;2022-12-18T11:38:13;-3.70;99.90
7331;DHT22;3706;49.198;7.064;2022-12-18T11:40:50;-3.70;99.90
7331;DHT22;3706;49.198;7.064;2022-12-18T11:43:24;-3.60;99.90
7331;DHT22;3706;49.198;7.064;2022-12-18T11:45:54;-3.40;99.90
7331;DHT22;3706;49.198;7.064;2022-12-18T11:48:25;-3.20;99.90
7331;DHT22;3706;49.198;7.064;2022-12-18T11:50:55;-3.10;99.90
7331;DHT22;3706;49.198;7.064;2022-12-18T11:53:24;-3.20;99.90
7331;DHT22;3706;49.198;7.064;2022-12-18T11:56:04;-3.20;99.90
7331;DHT22;3706;49.198;7.064;2022-12-18T11:58:51;-3.30;99.90
7331;DHT22;3706;49.198;7.064;2022-12-18T12:01:30;-3.20;99.90
7331;DHT22;3706;49.198;7.064;2022-12-18T12:04:38;-3.10;99.90
7331;DHT22;3706;49.198;7.064;2022-12-18T12:07:19;-2.80;99.90
7331;DHT22;3706;49.198;7.064;2022-12-18T12:09:55;-2.70;99.90
7331;DHT22;3706;49.198;7.064;2022-12-18T12:12:34;-2.80;99.90
7331;DHT22;3706;49.198;7.064;2022-12-18T12:15:20;-2.90;99.90
7331;DHT22;3706;49.198;7.064;2022-12-18T12:17:54;-3.00;99.90
7331;DHT22;3706;49.198;7.064;2022-12-18T12:20:30;-3.00;99.90
7331;DHT22;3706;49.198;7.064;2022-12-18T12:23:05;-3.00;99.90
7331;DHT22;3706;49.198;7.064;2022-12-18T12:25:39;-3.00;99.90
7331;DHT22;3706;49.198;7.064;2022-12-18T12:28:18;-3.00;99.90
7331;DHT22;3706;49.198;7.064;2022-12-18T12:30:55;-2.90;99.90
7331;DHT22;3706;49.198;7.064;2022-12-18T12:33:34;-2.90;99.90
7331;DHT22;3706;49.198;7.064;2022-12-18T12:36:11;-2.90;99.90
7331;DHT22;3706;49.198;7.064;2022-12-18T12:38:42;-2.90;99.90
7331;DHT22;3706;49.198;7.064;2022-12-18T12:41:14;-2.90;99.90
7331;DHT22;3706;49.198;7.064;2022-12-18T12:43:59;-2.80;99.90
7331;DHT22;3706;49.198;7.064;2022-12-18T12:46:30;-2.70;99.90
7331;DHT22;3706;49.198;7.064;2022-12-18T12:49:00;-2.70;99.90
7331;DHT22;3706;49.198;7.064;2022-12-18T12:51:29;-2.70;99.90
7331;DHT22;3706;49.198;7.064;2022-12-18T12:53:59;-2.70;99.90
7331;DHT22;3706;49.198;7.064;2022-12-18T12:56:32;-2.70;99.90
7331;DHT22;3706;49.198;7.064;2022-12-18T12:59:13;-2.70;99.90
7331;DHT22;3706;49.198;7.064;2022-12-18T13:01:49;-2.80;99.90
7331;DHT22;3706;49.198;7.064;2022-12-18T13:04:23;-2.80;99.90
7331;DHT22;3706;49.198;7.064;2022-12-18T13:07:00;-2.80;99.90
7331;DHT22;3706;49.198;7.064;2022-12-18T13:09:31;-2.80;99.90
7331;DHT22;3706;49.198;7.064;2022-12-18T13:12:03;-2.80;99.90
7331;DHT22;3706;49.198;7.064;2022-12-18T13:14:49;-2.80;99.90
7331;DHT22;3706;49.198;7.064;2022-12-18T13:17:30;-2.60;99.90
7331;DHT22;3706;49.198;7.064;2022-12-18T13:20:09;-2.50;99.90
7331;DHT22;3706;49.198;7.064;2022-12-18T13:22:38;-2.40;99.90
7331;DHT22;3706;49.198;7.064;2022-12-18T13:25:27;-2.20;99.90
7331;DHT22;3706;49.198;7.064;2022-12-18T13:28:09;-2.20;99.90
7331;DHT22;3706;49.198;7.064;2022-12-18T13:30:47;-2.00;99.90
7331;DHT22;3706;49.198;7.064;2022-12-18T13:33:45;-1.90;99.90
7331;DHT22;3706;49.198;7.064;2022-12-18T13:36:15;-1.90;99.90
7331;DHT22;3706;49.198;7.064;2022-12-18T13:38:43;-2.00;99.90
7331;DHT22;3706;49.198;7.064;2022-12-18T13:41:25;-2.20;99.90
7331;DHT22;3706;49.198;7.064;2022-12-18T13:43:54;-2.40;99.90
7331;DHT22;3706;49.198;7.064;2022-12-18T13:46:27;-2.40;99.90
7331;DHT22;3706;49.198;7.064;2022-12-18T13:49:00;-2.50;99.90
7331;DHT22;3706;49.198;7.064;2022-12-18T13:51:29;-2.60;99.90
7331;DHT22;3706;49.198;7.064;2022-12-18T13:54:00;-2.60;99.90
7331;DHT22;3706;49.198;7.064;2022-12-18T13:56:30;-2.60;99.90
7331;DHT22;3706;49.198;7.064;2022-12-18T13:59:19;-2.60;99.90
7331;DHT22;3706;49.198;7.064;2022-12-18T14:01:52;-2.60;99.90
7331;DHT22;3706;49.198;7.064;2022-12-18T14:04:22;-2.70;99.90
7331;DHT22;3706;49.198;7.064;2022-12-18T14:06:52;-2.70;99.90
7331;DHT22;3706;49.198;7.064;2022-12-18T14:09:23;-2.70;99.90
7331;DHT22;3706;49.198;7.064;2022-12-18T14:11:51;-2.80;99.90
7331;DHT22;3706;49.198;7.064;2022-12-18T14:14:41;-2.80;99.90
7331;DHT22;3706;49.198;7.064;2022-12-18T14:17:11;-2.90;99.90
7331;DHT22;3706;49.198;7.064;2022-12-18T14:19:42;-2.90;99.90
7331;DHT22;3706;49.198;7.064;2022-12-18T14:22:16;-3.00;99.90
7331;DHT22;3706;49.198;7.064;2022-12-18T14:24:43;-3.00;99.90
7331;DHT22;3706;49.198;7.064;2022-12-18T14:27:22;-3.10;99.90
7331;DHT22;3706;49.198;7.064;2022-12-18T14:29:49;-3.00;99.90
7331;DHT22;3706;49.198;7.064;2022-12-18T14:32:19;-3.00;99.90
7331;DHT22;3706;49.198;7.064;2022-12-18T14:34:47;-3.10;99.90
7331;DHT22;3706;49.198;7.064;2022-12-18T14:37:17;-3.10;99.90
7331;DHT22;3706;49.198;7.064;2022-12-18T14:39:58;-3.10;99.90
7331;DHT22;3706;49.198;7.064;2022-12-18T14:42:26;-3.10;99.90
7331;DHT22;3706;49.198;7.064;2022-12-18T14:47:56;-3.20;99.90
7331;DHT22;3706;49.198;7.064;2022-12-18T14:50:22;-3.30;99.90
7331;DHT22;3706;49.198;7.064;2022-12-18T14:52:50;-3.30;99.90
7331;DHT22;3706;49.198;7.064;2022-12-18T14:55:18;-3.40;99.90
7331;DHT22;3706;49.198;7.064;2022-12-18T14:57:49;-3.40;99.90
7331;DHT22;3706;49.198;7.064;2022-12-18T15:00:19;-3.50;99.90
7331;DHT22;3706;49.198;7.064;2022-12-18T15:02:49;-3.50;99.90
7331;DHT22;3706;49.198;7.064;2022-12-18T15:05:24;-3.50;99.90
7331;DHT22;3706;49.198;7.064;2022-12-18T15:07:53;-3.60;99.90
7331;DHT22;3706;49.198;7.064;2022-12-18T15:10:22;-3.60;99.90
7331;DHT22;3706;49.198;7.064;2022-12-18T15:13:05;-3.60;99.90
7331;DHT22;3706;49.198;7.064;2022-12-18T15:18:13;-3.70;99.90
7331;DHT22;3706;49.198;7.064;2022-12-18T15:20:46;-3.70;99.90
7331;DHT22;3706;49.198;7.064;2022-12-18T15:23:16;-3.80;99.90
7331;DHT22;3706;49.198;7.064;2022-12-18T15:25:44;-3.80;99.90
7331;DHT22;3706;49.198;7.064;2022-12-18T15:28:19;-3.90;99.90
7331;DHT22;3706;49.198;7.064;2022-12-18T15:31:22;-3.90;99.90
7331;DHT22;3706;49.198;7.064;2022-12-18T15:34:14;-4.00;99.90
7331;DHT22;3706;49.198;7.064;2022-12-18T15:36:46;-4.10;99.90
7331;DHT22;3706;49.198;7.064;2022-12-18T15:39:13;-4.10;99.90
7331;DHT22;3706;49.198;7.064;2022-12-18T15:41:40;-4.10;99.90
7331;DHT22;3706;49.198;7.064;2022-12-18T15:44:28;-4.20;99.90
7331;DHT22;3706;49.198;7.064;2022-12-18T15:46:53;-4.30;99.90
7331;DHT22;3706;49.198;7.064;2022-12-18T15:49:23;-4.30;99.90
7331;DHT22;3706;49.198;7.064;2022-12-18T15:51:53;-4.40;99.90
7331;DHT22;3706;49.198;7.064;2022-12-18T15:54:21;-4.40;99.90
7331;DHT22;3706;49.198;7.064;2022-12-18T15:57:10;-4.30;99.90
7331;DHT22;3706;49.198;7.064;2022-12-18T15:59:48;-4.30;99.90
7331;DHT22;3706;49.198;7.064;2022-12-18T16:02:17;-4.20;99.90
7331;DHT22;3706;49.198;7.064;2022-12-18T16:04:45;-4.20;99.90
7331;DHT22;3706;49.198;7.064;2022-12-18T16:07:13;-4.20;99.90
7331;DHT22;3706;49.198;7.064;2022-12-18T16:09:41;-4.20;99.90
7331;DHT22;3706;49.198;7.064;2022-12-18T16:12:15;-4.20;99.90
7331;DHT22;3706;49.198;7.064;2022-12-18T16:14:42;-4.20;99.90
7331;DHT22;3706;49.198;7.064;2022-12-18T16:17:12;-4.30;99.90
7331;DHT22;3706;49.198;7.064;2022-12-18T16:19:39;-4.20;99.90
7331;DHT22;3706;49.198;7.064;2022-12-18T16:22:19;-4.30;99.90
7331;DHT22;3706;49.198;7.064;2022-12-18T16:24:47;-4.30;99.90
7331;DHT22;3706;49.198;7.064;2022-12-18T16:27:14;-4.30;99.90
7331;DHT22;3706;49.198;7.064;2022-12-18T16:29:41;-4.30;99.90